Time;durP1;ratioP1;P1;durP2;ratioP2;P2;SDS_P1;SDS_P2;PMS_P1;PMS_P2;Temp;Humidity;BMP_temperature;BMP_pressure;BME280_temperature;BME280_humidity;BME280_pressure;Samples;Min_cycle;Max_cycle;Signal;HPM_P1;HPM_P2
2022/10/02 00:01:22;;;;;;;1.60;1.60;;;;;;;;;;1862528;75;26341;-66
2022/10/02 00:03:53;;;;;;;1.72;1.72;;;;;;;;;;1863858;75;26848;-66
2022/10/02 00:06:22;;;;;;;1.70;1.70;;;;;;;;;;1792578;75;26412;-63
2022/10/02 00:08:51;;;;;;;1.77;1.70;;;;;;;;;;1801143;79;26768;-65
2022/10/02 00:11:20;;;;;;;2.00;1.90;;;;;;;;;;1793388;79;26224;-66
2022/10/02 00:13:55;;;;;;;1.70;1.70;;;;;;;;;;1787376;79;27481;-63
2022/10/02 00:16:28;;;;;;;1.60;1.60;;;;;;;;;;1799994;79;26280;-65
2022/10/02 00:18:56;;;;;;;1.60;1.60;;;;;;;;;;1796042;79;26338;-65
2022/10/02 00:21:34;;;;;;;1.62;1.55;;;;;;;;;;1786321;79;26863;-65
2022/10/02 00:24:02;;;;;;;1.70;1.70;;;;;;;;;;1792915;79;26288;-63
2022/10/02 00:26:46;;;;;;;1.70;1.60;;;;;;;;;;1795804;79;26346;-64
2022/10/02 00:29:16;;;;;;;1.90;1.80;;;;;;;;;;1789640;79;26629;-63
2022/10/02 00:32:02;;;;;;;1.50;1.50;;;;;;;;;;1801837;79;26292;-66
2022/10/02 00:34:34;;;;;;;1.60;1.60;;;;;;;;;;1801523;79;27324;-65
2022/10/02 00:37:03;;;;;;;1.65;1.65;;;;;;;;;;1788109;79;27196;-66
2022/10/02 00:39:44;;;;;;;1.65;1.60;;;;;;;;;;1795997;79;26284;-64
2022/10/02 00:42:12;;;;;;;1.60;1.60;;;;;;;;;;1791683;79;26713;-65
2022/10/02 00:44:44;;;;;;;1.60;1.60;;;;;;;;;;1730971;79;26921;-66
2022/10/02 00:47:13;;;;;;;1.55;1.55;;;;;;;;;;1801782;79;26770;-64
2022/10/02 00:49:51;;;;;;;1.80;1.70;;;;;;;;;;1775006;79;27475;-62
2022/10/02 00:52:19;;;;;;;1.80;1.70;;;;;;;;;;1786306;79;27082;-65
2022/10/02 00:54:48;;;;;;;1.50;1.50;;;;;;;;;;1767092;79;26313;-65
2022/10/02 00:57:17;;;;;;;1.45;1.45;;;;;;;;;;1792644;79;26279;-65
2022/10/02 00:59:50;;;;;;;1.70;1.60;;;;;;;;;;1798325;79;26346;-65
2022/10/02 01:02:27;;;;;;;1.40;1.40;;;;;;;;;;1789643;79;26606;-64
2022/10/02 01:04:55;;;;;;;1.60;1.60;;;;;;;;;;1784591;79;26880;-62
2022/10/02 01:07:22;;;;;;;1.60;1.60;;;;;;;;;;1773943;79;26276;-65
2022/10/02 01:09:50;;;;;;;1.80;1.70;;;;;;;;;;1796522;79;26263;-64
2022/10/02 01:12:17;;;;;;;1.80;1.70;;;;;;;;;;1778975;79;26282;-65
2022/10/02 01:14:44;;;;;;;1.60;1.60;;;;;;;;;;1778302;79;26684;-65
2022/10/02 01:17:27;;;;;;;1.50;1.50;;;;;;;;;;1782795;79;26286;-65
2022/10/02 01:19:55;;;;;;;1.90;1.80;;;;;;;;;;1783080;79;26263;-64
2022/10/02 01:25:16;;;;;;;1.42;1.42;;;;;;;;;;1822308;77;26355;-65
2022/10/02 01:27:45;;;;;;;1.50;1.50;;;;;;;;;;1825297;77;26855;-65
2022/10/02 01:30:13;;;;;;;1.60;1.60;;;;;;;;;;1834745;77;26828;-66
2022/10/02 01:32:43;;;;;;;1.50;1.50;;;;;;;;;;1841137;77;26732;-66
2022/10/02 01:35:10;;;;;;;1.75;1.52;;;;;;;;;;1850628;77;26262;-66
2022/10/02 01:37:39;;;;;;;1.55;1.55;;;;;;;;;;1834752;77;26839;-64
2022/10/02 01:40:08;;;;;;;1.52;1.52;;;;;;;;;;1836719;77;26239;-63
2022/10/02 01:42:37;;;;;;;1.57;1.57;;;;;;;;;;1837091;77;26383;-65
2022/10/02 01:45:05;;;;;;;1.60;1.60;;;;;;;;;;1830866;77;26536;-65
2022/10/02 01:47:49;;;;;;;1.70;1.60;;;;;;;;;;1832806;77;26293;-65
2022/10/02 01:50:18;;;;;;;1.72;1.62;;;;;;;;;;1832264;77;26682;-65
2022/10/02 01:53:02;;;;;;;1.42;1.42;;;;;;;;;;1827317;77;26218;-64
2022/10/02 01:55:40;;;;;;;1.82;1.72;;;;;;;;;;1830840;77;27598;-65
2022/10/02 01:58:12;;;;;;;1.57;1.57;;;;;;;;;;1829770;77;26297;-61
2022/10/02 02:00:40;;;;;;;1.45;1.45;;;;;;;;;;1834873;77;26242;-65
2022/10/02 02:03:12;;;;;;;1.70;1.70;;;;;;;;;;1814012;77;26289;-67
2022/10/02 02:05:51;;;;;;;1.50;1.50;;;;;;;;;;1827399;77;26684;-65
2022/10/02 02:08:24;;;;;;;1.60;1.50;;;;;;;;;;1818237;77;26309;-64
2022/10/02 02:10:55;;;;;;;1.52;1.52;;;;;;;;;;1836853;77;26771;-63
2022/10/02 02:13:27;;;;;;;1.40;1.40;;;;;;;;;;1839869;77;26746;-66
2022/10/02 02:15:59;;;;;;;1.60;1.60;;;;;;;;;;1830842;77;26261;-66
2022/10/02 02:18:28;;;;;;;1.60;1.60;;;;;;;;;;1851736;77;26346;-67
2022/10/02 02:20:57;;;;;;;1.37;1.37;;;;;;;;;;1838516;77;27459;-64
2022/10/02 02:23:26;;;;;;;1.67;1.67;;;;;;;;;;1840326;77;26743;-66
2022/10/02 02:25:55;;;;;;;1.60;1.60;;;;;;;;;;1829080;77;26765;-66
2022/10/02 02:28:23;;;;;;;1.65;1.65;;;;;;;;;;1852088;77;26633;-65
2022/10/02 02:30:52;;;;;;;1.55;1.50;;;;;;;;;;1835194;77;26274;-65
2022/10/02 02:33:23;;;;;;;1.50;1.50;;;;;;;;;;1842818;77;26270;-65
2022/10/02 02:35:52;;;;;;;1.45;1.45;;;;;;;;;;1827725;77;26272;-61
2022/10/02 02:38:24;;;;;;;1.52;1.52;;;;;;;;;;1824344;77;26272;-65
2022/10/02 02:40:52;;;;;;;1.50;1.50;;;;;;;;;;1829652;77;26278;-65
2022/10/02 02:43:21;;;;;;;1.50;1.50;;;;;;;;;;1822839;77;26282;-63
2022/10/02 02:45:52;;;;;;;1.40;1.40;;;;;;;;;;1833299;77;26886;-64
2022/10/02 02:48:21;;;;;;;1.55;1.55;;;;;;;;;;1822231;77;26882;-64
2022/10/02 02:50:53;;;;;;;1.87;1.77;;;;;;;;;;1851906;77;26282;-63
2022/10/02 02:53:22;;;;;;;1.57;1.47;;;;;;;;;;1844251;77;26340;-65
2022/10/02 02:55:51;;;;;;;1.50;1.50;;;;;;;;;;1822471;78;26347;-66
2022/10/02 02:58:20;;;;;;;1.50;1.50;;;;;;;;;;1847247;77;26312;-64
2022/10/02 03:00:47;;;;;;;1.52;1.52;;;;;;;;;;1851632;77;26258;-65
2022/10/02 03:03:14;;;;;;;1.50;1.50;;;;;;;;;;1848193;77;26262;-65
2022/10/02 03:05:43;;;;;;;1.57;1.47;;;;;;;;;;1849866;77;26242;-65
2022/10/02 03:08:14;;;;;;;1.42;1.42;;;;;;;;;;1839129;77;27376;-65
2022/10/02 03:10:43;;;;;;;1.50;1.50;;;;;;;;;;1838159;77;26939;-65
2022/10/02 03:13:12;;;;;;;1.42;1.42;;;;;;;;;;1841684;77;26726;-66
2022/10/02 03:15:41;;;;;;;1.60;1.57;;;;;;;;;;1837485;77;26803;-64
2022/10/02 03:18:15;;;;;;;1.67;1.50;;;;;;;;;;1834706;77;26819;-66
2022/10/02 03:20:47;;;;;;;1.40;1.40;;;;;;;;;;1849148;77;26257;-66
2022/10/02 03:23:16;;;;;;;1.40;1.40;;;;;;;;;;1833215;77;26586;-65
2022/10/02 03:25:44;;;;;;;1.50;1.50;;;;;;;;;;1777753;78;26239;-63
2022/10/02 03:28:13;;;;;;;1.40;1.30;;;;;;;;;;1835055;78;26267;-63
2022/10/02 03:30:42;;;;;;;2.65;1.72;;;;;;;;;;1830065;78;26215;-65
2022/10/02 03:33:10;;;;;;;1.57;1.57;;;;;;;;;;1835611;78;26303;-66
2022/10/02 03:35:38;;;;;;;1.55;1.45;;;;;;;;;;1820728;78;26821;-63
2022/10/02 03:38:06;;;;;;;1.65;1.60;;;;;;;;;;1816747;78;26247;-64
2022/10/02 03:40:33;;;;;;;1.60;1.42;;;;;;;;;;1826140;77;26763;-65
2022/10/02 03:43:01;;;;;;;1.55;1.55;;;;;;;;;;1832908;78;26802;-65
2022/10/02 03:45:29;;;;;;;1.50;1.50;;;;;;;;;;1810465;78;26373;-65
2022/10/02 03:47:56;;;;;;;1.55;1.55;;;;;;;;;;1815301;78;26841;-64
2022/10/02 03:50:23;;;;;;;1.52;1.52;;;;;;;;;;1839631;78;26696;-65
2022/10/02 03:52:51;;;;;;;1.40;1.40;;;;;;;;;;1803400;78;27495;-63
2022/10/02 03:55:26;;;;;;;1.60;1.60;;;;;;;;;;1827376;78;26243;-66
2022/10/02 03:57:54;;;;;;;1.50;1.50;;;;;;;;;;1830194;78;26426;-64
2022/10/02 04:00:26;;;;;;;1.70;1.60;;;;;;;;;;1827431;78;27413;-65
2022/10/02 04:02:54;;;;;;;1.45;1.45;;;;;;;;;;1828491;78;26282;-64
2022/10/02 04:05:29;;;;;;;1.60;1.60;;;;;;;;;;1833566;78;26331;-65
2022/10/02 04:08:04;;;;;;;2.02;1.77;;;;;;;;;;1819248;78;26277;-64
2022/10/02 04:10:32;;;;;;;1.77;1.70;;;;;;;;;;1821144;78;27319;-63
2022/10/02 04:13:04;;;;;;;1.95;1.70;;;;;;;;;;1797849;78;26273;-65
2022/10/02 04:15:38;;;;;;;1.70;1.60;;;;;;;;;;1807066;78;26298;-64
2022/10/02 04:18:07;;;;;;;1.70;1.60;;;;;;;;;;1802758;78;26321;-65
2022/10/02 04:20:40;;;;;;;1.77;1.67;;;;;;;;;;1828612;78;26243;-62
2022/10/02 04:23:12;;;;;;;1.70;1.60;;;;;;;;;;1807212;78;26306;-65
2022/10/02 04:25:40;;;;;;;1.70;1.60;;;;;;;;;;1808685;78;26368;-64
2022/10/02 04:30:56;;;;;;;1.70;1.60;;;;;;;;;;1785419;80;26333;-64
2022/10/02 04:33:24;;;;;;;1.62;1.60;;;;;;;;;;1783168;79;26293;-63
2022/10/02 04:36:17;;;;;;;2.47;1.60;;;;;;;;;;1780846;79;26340;-64
2022/10/02 04:38:43;;;;;;;3.27;1.80;;;;;;;;;;1796922;77;26321;-65
2022/10/02 04:41:27;;;;;;;1.52;1.52;;;;;;;;;;1797486;78;26328;-64
2022/10/02 04:43:58;;;;;;;1.70;1.60;;;;;;;;;;1763025;79;26360;-64
2022/10/02 04:46:43;;;;;;;3.80;1.80;;;;;;;;;;1785551;78;26279;-64
2022/10/02 04:49:30;;;;;;;1.52;1.52;;;;;;;;;;1797566;78;26275;-65
2022/10/02 04:52:11;;;;;;;2.45;1.67;;;;;;;;;;1795662;78;27089;-65
2022/10/02 04:54:52;;;;;;;5.65;2.00;;;;;;;;;;1798389;78;26837;-66
2022/10/02 04:57:23;;;;;;;5.42;1.70;;;;;;;;;;1794667;78;26286;-66
2022/10/02 04:59:55;;;;;;;2.25;1.60;;;;;;;;;;1801874;78;26340;-63
2022/10/02 05:02:40;;;;;;;2.77;1.65;;;;;;;;;;1796698;78;26333;-67
2022/10/02 05:05:25;;;;;;;3.95;1.95;;;;;;;;;;1799024;78;26258;-65
2022/10/02 05:08:03;;;;;;;3.37;1.42;;;;;;;;;;1796339;78;27212;-66
2022/10/02 05:10:34;;;;;;;1.77;1.52;;;;;;;;;;1710605;82;26873;-64
2022/10/02 05:13:20;;;;;;;1.60;1.50;;;;;;;;;;1802579;78;26328;-66
2022/10/02 05:15:49;;;;;;;2.58;1.50;;;;;;;;;;1798482;78;26384;-66
2022/10/02 05:18:23;;;;;;;1.60;1.50;;;;;;;;;;1795897;78;26263;-66
2022/10/02 05:21:01;;;;;;;2.70;1.47;;;;;;;;;;1798062;78;27393;-65
2022/10/02 05:23:30;;;;;;;2.15;1.40;;;;;;;;;;1706805;81;26851;-63
2022/10/02 05:26:04;;;;;;;1.50;1.42;;;;;;;;;;1794481;78;26846;-65
2022/10/02 05:28:37;;;;;;;1.40;1.30;;;;;;;;;;1796060;78;26341;-64
2022/10/02 05:31:21;;;;;;;1.55;1.45;;;;;;;;;;1795581;78;26274;-65
2022/10/02 05:33:50;;;;;;;1.30;1.30;;;;;;;;;;1798855;78;26348;-62
2022/10/02 05:36:35;;;;;;;1.98;1.40;;;;;;;;;;1799140;78;26328;-65
2022/10/02 05:39:10;;;;;;;1.57;1.50;;;;;;;;;;1817889;77;26309;-65
2022/10/02 05:41:48;;;;;;;1.50;1.50;;;;;;;;;;1817557;77;26266;-63
2022/10/02 05:44:20;;;;;;;1.50;1.40;;;;;;;;;;1798649;77;26349;-65
2022/10/02 05:47:01;;;;;;;1.67;1.57;;;;;;;;;;1814236;77;26273;-64
2022/10/02 05:49:36;;;;;;;1.50;1.40;;;;;;;;;;1815196;78;26273;-62
2022/10/02 05:52:08;;;;;;;1.55;1.30;;;;;;;;;;1813799;77;26349;-63
2022/10/02 05:54:42;;;;;;;1.30;1.30;;;;;;;;;;1825440;77;26245;-65
2022/10/02 05:57:14;;;;;;;1.77;1.30;;;;;;;;;;1815512;78;26271;-63
2022/10/02 05:59:46;;;;;;;2.80;1.40;;;;;;;;;;1814329;77;26333;-64
2022/10/02 06:02:14;;;;;;;3.62;1.42;;;;;;;;;;1811290;77;26907;-64
2022/10/02 06:04:43;;;;;;;1.65;1.40;;;;;;;;;;1805183;78;26815;-66
2022/10/02 06:07:12;;;;;;;4.78;1.52;;;;;;;;;;1808257;78;26875;-64
2022/10/02 06:09:59;;;;;;;2.67;1.42;;;;;;;;;;1813706;78;26774;-63
2022/10/02 06:12:34;;;;;;;2.25;1.50;;;;;;;;;;1793637;78;26751;-65
2022/10/02 06:15:08;;;;;;;2.50;1.47;;;;;;;;;;1804621;78;27123;-62
2022/10/02 06:17:43;;;;;;;1.75;1.42;;;;;;;;;;1811965;77;26347;-65
2022/10/02 06:20:18;;;;;;;5.22;1.72;;;;;;;;;;1806155;77;26356;-63
2022/10/02 06:22:47;;;;;;;3.87;1.70;;;;;;;;;;1815944;77;26229;-65
2022/10/02 06:25:22;;;;;;;3.72;1.85;;;;;;;;;;1821469;78;26270;-64
2022/10/02 06:27:53;;;;;;;4.95;1.70;;;;;;;;;;1815485;78;26392;-65
2022/10/02 06:30:21;;;;;;;4.33;1.87;;;;;;;;;;1824332;78;26345;-61
2022/10/02 06:32:49;;;;;;;2.90;1.60;;;;;;;;;;1808199;78;26293;-62
2022/10/02 06:35:18;;;;;;;6.53;2.10;;;;;;;;;;1814303;77;26618;-62
2022/10/02 06:37:50;;;;;;;5.40;2.02;;;;;;;;;;1812726;77;26302;-64
2022/10/02 06:40:19;;;;;;;5.87;1.90;;;;;;;;;;1814213;78;26380;-65
2022/10/02 06:42:54;;;;;;;3.00;1.70;;;;;;;;;;1805979;78;26301;-62
2022/10/02 06:45:39;;;;;;;3.55;1.60;;;;;;;;;;1814010;78;26281;-65
2022/10/02 06:48:18;;;;;;;8.60;1.80;;;;;;;;;;1818987;78;26294;-66
2022/10/02 06:50:55;;;;;;;3.55;1.98;;;;;;;;;;1778399;80;26687;-63
2022/10/02 06:53:36;;;;;;;5.03;1.60;;;;;;;;;;1821073;78;26199;-67
2022/10/02 06:56:14;;;;;;;1.95;1.72;;;;;;;;;;1824445;78;26688;-63
2022/10/02 06:58:44;;;;;;;3.40;1.70;;;;;;;;;;1837182;78;26239;-64
2022/10/02 07:01:29;;;;;;;3.58;1.90;;;;;;;;;;1832526;78;26849;-62
2022/10/02 07:04:02;;;;;;;4.90;1.87;;;;;;;;;;1799870;78;26880;-66
2022/10/02 07:06:49;;;;;;;2.87;1.75;;;;;;;;;;1806992;78;26848;-65
2022/10/02 07:09:18;;;;;;;1.50;1.40;;;;;;;;;;1800426;78;26361;-64
2022/10/02 07:11:56;;;;;;;2.10;1.90;;;;;;;;;;1815312;78;26269;-63
2022/10/02 07:14:26;;;;;;;1.72;1.62;;;;;;;;;;1807161;78;26345;-65
2022/10/02 07:19:45;;;;;;;1.70;1.60;;;;;;;;;;1791978;78;26346;-64
2022/10/02 07:22:30;;;;;;;2.45;1.62;;;;;;;;;;1794239;79;26275;-65
2022/10/02 07:25:16;;;;;;;3.42;2.10;;;;;;;;;;1798015;79;26279;-63
2022/10/02 07:27:54;;;;;;;2.55;1.60;;;;;;;;;;1803754;79;26237;-65
2022/10/02 07:30:21;;;;;;;2.10;2.00;;;;;;;;;;1798059;79;26713;-59
2022/10/02 07:32:56;;;;;;;2.35;2.22;;;;;;;;;;1800655;79;26226;-59
2022/10/02 07:35:25;;;;;;;2.45;2.25;;;;;;;;;;1802830;78;26698;-62
2022/10/02 07:38:03;;;;;;;2.37;2.17;;;;;;;;;;1796798;78;26846;-65
2022/10/02 07:40:35;;;;;;;3.70;2.05;;;;;;;;;;1801473;79;26660;-63
2022/10/02 07:43:03;;;;;;;2.90;2.17;;;;;;;;;;1799241;78;26219;-65
2022/10/02 07:45:32;;;;;;;2.65;2.45;;;;;;;;;;1801761;78;26670;-65
2022/10/02 07:48:13;;;;;;;2.55;2.35;;;;;;;;;;1791400;78;26764;-67
2022/10/02 07:50:50;;;;;;;2.30;2.20;;;;;;;;;;1800454;78;26335;-60
2022/10/02 07:53:29;;;;;;;2.80;2.17;;;;;;;;;;1798091;79;26234;-61
2022/10/02 07:55:58;;;;;;;3.15;2.10;;;;;;;;;;1799107;79;26304;-57
2022/10/02 07:58:32;;;;;;;6.50;2.67;;;;;;;;;;1788183;79;28456;-59
2022/10/02 08:01:01;;;;;;;26.30;4.53;;;;;;;;;;1799564;78;26689;-60
2022/10/02 08:03:32;;;;;;;12.95;3.52;;;;;;;;;;1810951;78;26682;-65
2022/10/02 08:06:00;;;;;;;10.50;2.95;;;;;;;;;;1804486;79;26288;-57
2022/10/02 08:08:38;;;;;;;8.78;2.72;;;;;;;;;;1807217;79;26291;-57
2022/10/02 08:11:13;;;;;;;8.75;2.52;;;;;;;;;;1781459;78;29143;-57
2022/10/02 08:13:55;;;;;;;13.00;2.70;;;;;;;;;;1802995;78;26722;-56
2022/10/02 08:16:31;;;;;;;7.40;2.77;;;;;;;;;;1785935;78;26352;-58
2022/10/02 08:19:00;;;;;;;10.43;3.10;;;;;;;;;;1811442;78;26843;-55
2022/10/02 08:21:28;;;;;;;9.35;2.60;;;;;;;;;;1812525;78;26302;-54
2022/10/02 08:23:57;;;;;;;13.20;2.25;;;;;;;;;;1804235;78;26267;-55
2022/10/02 08:26:26;;;;;;;8.65;2.70;;;;;;;;;;1806150;78;26248;-56
2022/10/02 08:28:56;;;;;;;8.08;2.52;;;;;;;;;;1813312;78;27469;-57
2022/10/02 08:31:24;;;;;;;10.08;2.55;;;;;;;;;;1811053;78;26253;-58
2022/10/02 08:33:52;;;;;;;8.70;2.30;;;;;;;;;;1801281;78;26697;-57
2022/10/02 08:36:27;;;;;;;10.28;2.80;;;;;;;;;;1808464;78;26252;-51
2022/10/02 08:38:56;;;;;;;17.50;2.67;;;;;;;;;;1796087;78;26792;-54
2022/10/02 08:41:37;;;;;;;7.87;2.58;;;;;;;;;;1790593;78;26677;-52
2022/10/02 08:44:14;;;;;;;5.92;2.15;;;;;;;;;;1803527;78;26273;-54
2022/10/02 08:46:57;;;;;;;6.30;2.05;;;;;;;;;;1801637;78;26233;-51
2022/10/02 08:49:39;;;;;;;7.33;2.00;;;;;;;;;;1798782;78;26318;-51
2022/10/02 08:52:14;;;;;;;5.40;2.08;;;;;;;;;;1798656;78;26237;-52
2022/10/02 08:54:49;;;;;;;5.20;2.10;;;;;;;;;;1795696;78;26274;-51
2022/10/02 08:57:35;;;;;;;9.18;2.00;;;;;;;;;;1794614;78;26298;-54
2022/10/02 09:00:13;;;;;;;7.05;2.30;;;;;;;;;;1797684;78;27394;-54
2022/10/02 09:02:55;;;;;;;5.83;2.00;;;;;;;;;;1802235;78;26279;-53
2022/10/02 09:05:24;;;;;;;8.75;1.80;;;;;;;;;;1793656;78;26331;-54
2022/10/02 09:08:10;;;;;;;1.95;1.72;;;;;;;;;;1797011;78;26309;-53
2022/10/02 09:10:57;;;;;;;5.17;1.90;;;;;;;;;;1807025;78;26694;-54
2022/10/02 09:13:32;;;;;;;3.33;1.77;;;;;;;;;;1789897;79;26335;-55
2022/10/02 09:16:07;;;;;;;4.25;1.70;;;;;;;;;;1805530;78;26492;-54
2022/10/02 09:18:44;;;;;;;6.65;1.87;;;;;;;;;;1795878;78;26480;-54
2022/10/02 09:21:16;;;;;;;4.55;2.00;;;;;;;;;;1783227;79;26277;-55
2022/10/02 09:24:02;;;;;;;10.63;1.98;;;;;;;;;;1782281;79;28276;-56
2022/10/02 09:26:33;;;;;;;2.65;1.60;;;;;;;;;;1765072;79;26282;-58
2022/10/02 09:29:18;;;;;;;13.32;1.67;;;;;;;;;;1791563;79;26270;-59
2022/10/02 09:31:53;;;;;;;15.15;2.08;;;;;;;;;;1782665;79;26289;-58
2022/10/02 09:34:25;;;;;;;5.72;1.60;;;;;;;;;;1780606;79;26302;-59
2022/10/02 09:37:11;;;;;;;3.92;1.80;;;;;;;;;;1741467;80;26286;-59
2022/10/02 09:39:57;;;;;;;4.08;1.60;;;;;;;;;;1770610;79;26742;-59
2022/10/02 09:42:44;;;;;;;5.58;1.72;;;;;;;;;;1762716;79;26230;-59
2022/10/02 09:45:13;;;;;;;3.47;1.32;;;;;;;;;;1773833;79;26306;-59
2022/10/02 09:47:52;;;;;;;5.40;1.40;;;;;;;;;;1798244;79;26250;-59
2022/10/02 09:50:37;;;;;;;3.33;1.60;;;;;;;;;;1798774;79;26297;-60
2022/10/02 09:53:09;;;;;;;7.75;1.50;;;;;;;;;;1792108;79;26259;-60
2022/10/02 09:55:38;;;;;;;4.03;1.70;;;;;;;;;;1792863;79;26770;-59
2022/10/02 09:58:19;;;;;;;4.42;1.62;;;;;;;;;;1779553;79;26797;-59
2022/10/02 10:01:03;;;;;;;15.23;1.95;;;;;;;;;;1781254;79;26290;-59
2022/10/02 10:03:38;;;;;;;10.13;1.95;;;;;;;;;;1784228;79;26406;-59
2022/10/02 10:06:10;;;;;;;3.92;1.90;;;;;;;;;;1786322;79;26294;-59
2022/10/02 10:08:42;;;;;;;8.00;1.85;;;;;;;;;;1773580;79;26382;-59
2022/10/02 10:11:28;;;;;;;11.60;2.08;;;;;;;;;;1781281;79;26887;-59
2022/10/02 10:13:54;;;;;;;6.95;2.00;;;;;;;;;;1766375;79;27430;-59
2022/10/02 10:16:42;;;;;;;6.42;2.10;;;;;;;;;;1782235;79;26322;-58
2022/10/02 10:19:17;;;;;;;6.50;1.50;;;;;;;;;;1771064;79;26285;-59
2022/10/02 10:21:48;;;;;;;11.30;2.40;;;;;;;;;;1767246;79;26750;-59
2022/10/02 10:24:32;;;;;;;6.37;1.80;;;;;;;;;;1775414;79;26825;-59
2022/10/02 10:27:10;;;;;;;7.00;2.08;;;;;;;;;;1767952;79;27809;-60
2022/10/02 10:29:39;;;;;;;7.70;2.20;;;;;;;;;;1799605;79;26219;-61
2022/10/02 10:32:17;;;;;;;6.75;1.98;;;;;;;;;;1800043;79;26317;-61
2022/10/02 10:34:49;;;;;;;7.50;1.90;;;;;;;;;;1758708;79;26305;-61
2022/10/02 10:40:39;;;;;;;12.95;2.10;;;;;;;;;;1763251;79;26302;-60
2022/10/02 10:43:17;;;;;;;9.25;2.22;;;;;;;;;;1757641;79;26275;-60
2022/10/02 10:45:49;;;;;;;7.00;2.08;;;;;;;;;;1758221;79;26301;-60
2022/10/02 10:48:35;;;;;;;8.75;2.35;;;;;;;;;;1767784;79;26271;-60
2022/10/02 10:51:13;;;;;;;6.53;2.17;;;;;;;;;;1769396;79;26279;-61
2022/10/02 10:53:48;;;;;;;11.43;2.58;;;;;;;;;;1755512;79;26375;-61
2022/10/02 10:56:35;;;;;;;7.47;2.35;;;;;;;;;;1758242;79;26742;-61
2022/10/02 10:59:06;;;;;;;5.37;2.00;;;;;;;;;;1757176;79;26333;-60
2022/10/02 11:01:38;;;;;;;6.12;2.10;;;;;;;;;;1763969;79;26278;-60
2022/10/02 11:04:07;;;;;;;5.33;2.27;;;;;;;;;;1769716;79;26834;-61
2022/10/02 11:06:55;;;;;;;6.22;2.20;;;;;;;;;;1767019;79;26807;-60
2022/10/02 11:09:40;;;;;;;4.35;1.90;;;;;;;;;;1763527;79;26366;-60
2022/10/02 11:12:20;;;;;;;4.10;1.70;;;;;;;;;;1772927;79;26290;-60
2022/10/02 11:14:48;;;;;;;3.90;1.77;;;;;;;;;;1776363;79;26401;-60
2022/10/02 11:17:20;;;;;;;2.27;2.08;;;;;;;;;;1778202;79;26347;-60
2022/10/02 11:19:48;;;;;;;6.08;1.90;;;;;;;;;;1775219;79;26286;-61
2022/10/02 11:22:17;;;;;;;3.05;2.00;;;;;;;;;;1777086;79;26333;-61
2022/10/02 11:24:47;;;;;;;8.53;2.22;;;;;;;;;;1785126;79;26268;-61
2022/10/02 11:27:19;;;;;;;3.85;1.82;;;;;;;;;;1758722;79;27766;-60
2022/10/02 11:29:48;;;;;;;4.50;2.20;;;;;;;;;;1761493;79;26310;-60
2022/10/02 11:32:25;;;;;;;3.30;2.10;;;;;;;;;;1733110;79;26408;-60
2022/10/02 11:34:55;;;;;;;2.60;1.80;;;;;;;;;;1751640;79;26797;-60
2022/10/02 11:37:41;;;;;;;2.15;1.90;;;;;;;;;;1770954;79;26779;-61
2022/10/02 11:40:22;;;;;;;2.80;1.90;;;;;;;;;;1776746;78;26307;-60
2022/10/02 11:43:10;;;;;;;2.02;1.92;;;;;;;;;;1789351;79;26238;-60
2022/10/02 11:45:45;;;;;;;2.52;1.80;;;;;;;;;;1795004;79;26350;-60
2022/10/02 11:48:17;;;;;;;2.25;1.77;;;;;;;;;;1791217;79;26243;-61
2022/10/02 11:50:49;;;;;;;3.72;2.10;;;;;;;;;;1789562;79;26310;-61
2022/10/02 11:53:34;;;;;;;2.10;1.90;;;;;;;;;;1794849;79;26286;-60
2022/10/02 11:56:03;;;;;;;4.28;2.47;;;;;;;;;;1787072;79;26302;-57
2022/10/02 11:58:48;;;;;;;2.60;2.40;;;;;;;;;;1783743;79;26303;-58
2022/10/02 12:01:23;;;;;;;2.27;2.17;;;;;;;;;;1768614;79;26743;-54
2022/10/02 12:03:58;;;;;;;3.80;2.27;;;;;;;;;;1776028;78;26333;-56
2022/10/02 12:06:33;;;;;;;2.37;2.20;;;;;;;;;;1776409;78;27401;-57
2022/10/02 12:09:01;;;;;;;5.33;2.52;;;;;;;;;;1796058;78;26232;-56
2022/10/02 12:11:34;;;;;;;3.52;2.00;;;;;;;;;;1788501;79;26647;-55
2022/10/02 12:14:01;;;;;;;6.00;2.20;;;;;;;;;;1797282;79;26845;-58
2022/10/02 12:16:32;;;;;;;4.17;1.98;;;;;;;;;;1809720;78;26183;-53
2022/10/02 12:19:01;;;;;;;3.05;2.15;;;;;;;;;;1794268;79;26301;-58
2022/10/02 12:27:15;;;;;;;2.15;1.95;;;;;;;;;;1787174;79;26348;-52
2022/10/02 12:29:50;;;;;;;4.78;1.80;;;;;;;;;;1783084;79;26317;-55
2022/10/02 12:32:37;;;;;;;2.35;1.92;;;;;;;;;;1784222;79;26218;-55
2022/10/02 12:35:19;;;;;;;3.20;1.92;;;;;;;;;;1781054;78;26247;-54
2022/10/02 12:37:50;;;;;;;2.80;1.80;;;;;;;;;;1783154;78;26243;-56
2022/10/02 12:40:25;;;;;;;3.90;1.75;;;;;;;;;;1768015;79;26804;-56
2022/10/02 12:42:59;;;;;;;1.80;1.70;;;;;;;;;;1771810;79;26321;-55
2022/10/02 12:45:30;;;;;;;2.00;1.90;;;;;;;;;;1790129;79;26351;-57
2022/10/02 12:48:17;;;;;;;2.00;1.90;;;;;;;;;;1777201;79;26798;-57
2022/10/02 12:51:04;;;;;;;1.90;1.80;;;;;;;;;;1781847;79;26739;-57
2022/10/02 12:53:37;;;;;;;2.58;1.90;;;;;;;;;;1805126;78;26324;-56
2022/10/02 12:56:18;;;;;;;2.20;2.00;;;;;;;;;;1799818;79;26230;-57
2022/10/02 12:58:47;;;;;;;1.90;1.80;;;;;;;;;;1792744;79;26234;-56
2022/10/02 13:01:15;;;;;;;3.02;1.90;;;;;;;;;;1785033;79;26234;-56
2022/10/02 13:04:01;;;;;;;3.10;1.80;;;;;;;;;;1796926;79;26234;-56
2022/10/02 13:06:30;;;;;;;2.60;2.00;;;;;;;;;;1783109;78;26272;-56
2022/10/02 13:09:04;;;;;;;1.70;1.70;;;;;;;;;;1797148;78;26592;-57
2022/10/02 13:11:32;;;;;;;2.27;2.08;;;;;;;;;;1799426;79;26262;-57
2022/10/02 13:14:10;;;;;;;2.10;1.90;;;;;;;;;;1787039;78;26347;-56
2022/10/02 13:16:57;;;;;;;2.00;1.90;;;;;;;;;;1785718;79;26773;-56
2022/10/02 13:19:22;;;;;;;3.35;1.90;;;;;;;;;;1780760;78;26368;-57
2022/10/02 13:22:00;;;;;;;2.08;1.98;;;;;;;;;;1763922;79;26263;-56
2022/10/02 13:24:35;;;;;;;1.67;1.67;;;;;;;;;;1783083;78;26253;-57
2022/10/02 13:27:05;;;;;;;1.98;1.90;;;;;;;;;;1775539;79;26301;-57
2022/10/02 13:29:34;;;;;;;1.73;1.73;;;;;;;;;;1779059;79;26301;-54
2022/10/02 13:32:02;;;;;;;1.98;1.90;;;;;;;;;;1775494;79;26227;-54
2022/10/02 13:34:40;;;;;;;1.77;1.77;;;;;;;;;;1776870;79;26239;-57
2022/10/02 13:37:09;;;;;;;1.85;1.80;;;;;;;;;;1770057;78;26227;-57
2022/10/02 13:39:38;;;;;;;2.10;2.00;;;;;;;;;;1779937;78;26225;-57
2022/10/02 13:42:10;;;;;;;2.05;1.95;;;;;;;;;;1774624;79;26180;-60
2022/10/02 13:44:57;;;;;;;1.80;1.80;;;;;;;;;;1771425;78;26251;-57
2022/10/02 13:47:38;;;;;;;1.98;1.87;;;;;;;;;;1774881;79;26251;-57
2022/10/02 13:50:24;;;;;;;1.98;1.87;;;;;;;;;;1797726;78;26233;-55
2022/10/02 13:53:04;;;;;;;1.90;1.80;;;;;;;;;;1796947;79;26793;-56
2022/10/02 13:55:33;;;;;;;1.80;1.80;;;;;;;;;;1779484;79;26308;-56
2022/10/02 13:58:08;;;;;;;1.87;1.87;;;;;;;;;;1777435;79;26244;-53
2022/10/02 14:00:39;;;;;;;1.90;1.80;;;;;;;;;;1795196;79;26784;-55
2022/10/02 14:03:20;;;;;;;1.92;1.82;;;;;;;;;;1787355;79;26698;-55
2022/10/02 14:05:55;;;;;;;1.95;1.85;;;;;;;;;;1741018;79;26281;-57
2022/10/02 14:08:27;;;;;;;1.60;1.60;;;;;;;;;;1777415;79;26830;-56
2022/10/02 14:11:02;;;;;;;1.87;1.77;;;;;;;;;;1779946;79;26300;-56
2022/10/02 14:13:47;;;;;;;1.98;1.98;;;;;;;;;;1797632;79;26717;-52
2022/10/02 14:16:19;;;;;;;1.70;1.70;;;;;;;;;;1795143;78;26321;-57
2022/10/02 14:18:51;;;;;;;1.80;1.80;;;;;;;;;;1797923;79;26700;-57
2022/10/02 14:21:29;;;;;;;1.67;1.67;;;;;;;;;;1776181;78;26240;-57
2022/10/02 14:24:15;;;;;;;1.70;1.70;;;;;;;;;;1693459;83;26784;-54
2022/10/02 14:26:53;;;;;;;1.60;1.60;;;;;;;;;;1784795;78;27402;-55
2022/10/02 14:29:21;;;;;;;1.87;1.77;;;;;;;;;;1710176;82;26342;-55
2022/10/02 14:31:53;;;;;;;1.70;1.70;;;;;;;;;;1792106;78;26241;-54
2022/10/02 14:34:22;;;;;;;1.65;1.65;;;;;;;;;;1783160;79;26377;-56
2022/10/02 14:36:51;;;;;;;1.65;1.65;;;;;;;;;;1785434;79;26725;-56
2022/10/02 14:39:20;;;;;;;1.62;1.60;;;;;;;;;;1772085;78;26244;-57
2022/10/02 14:41:51;;;;;;;1.70;1.70;;;;;;;;;;1785580;79;26367;-55
2022/10/02 14:44:24;;;;;;;1.70;1.70;;;;;;;;;;1792481;78;26167;-57
2022/10/02 14:46:59;;;;;;;1.80;1.80;;;;;;;;;;1787874;79;26283;-56
2022/10/02 14:49:40;;;;;;;1.60;1.60;;;;;;;;;;1785112;79;26245;-57
2022/10/02 14:52:09;;;;;;;1.52;1.50;;;;;;;;;;1789530;79;26875;-58
2022/10/02 14:54:55;;;;;;;1.70;1.70;;;;;;;;;;1809919;79;26682;-58
2022/10/02 14:57:35;;;;;;;1.72;1.70;;;;;;;;;;1779470;79;27344;-56
2022/10/02 15:00:19;;;;;;;1.40;1.40;;;;;;;;;;1779479;78;26707;-56
2022/10/02 15:02:48;;;;;;;1.70;1.70;;;;;;;;;;1793207;78;26222;-55
2022/10/02 15:05:34;;;;;;;1.67;1.67;;;;;;;;;;1791882;79;26264;-54
2022/10/02 15:08:03;;;;;;;1.72;1.72;;;;;;;;;;1789760;79;26233;-56
2022/10/02 15:10:31;;;;;;;1.50;1.50;;;;;;;;;;1800058;79;26328;-57
2022/10/02 15:13:01;;;;;;;1.72;1.72;;;;;;;;;;1796192;79;27379;-56
2022/10/02 15:15:33;;;;;;;1.47;1.47;;;;;;;;;;1791883;78;26277;-56
2022/10/02 15:18:16;;;;;;;1.90;1.80;;;;;;;;;;1780123;79;26234;-56
2022/10/02 15:20:53;;;;;;;1.60;1.60;;;;;;;;;;1796137;78;26719;-54
2022/10/02 15:23:24;;;;;;;1.50;1.50;;;;;;;;;;1782630;79;26282;-55
2022/10/02 15:25:52;;;;;;;1.80;1.70;;;;;;;;;;1766273;78;26299;-56
2022/10/02 15:28:36;;;;;;;1.50;1.50;;;;;;;;;;1773054;79;26243;-57
2022/10/02 15:31:11;;;;;;;1.72;1.72;;;;;;;;;;1793990;79;26540;-57
2022/10/02 15:33:40;;;;;;;1.55;1.55;;;;;;;;;;1800817;79;26305;-57
2022/10/02 15:36:15;;;;;;;1.70;1.70;;;;;;;;;;1780680;79;26288;-57
2022/10/02 15:38:54;;;;;;;1.70;1.70;;;;;;;;;;1777146;79;26227;-54
2022/10/02 15:41:23;;;;;;;1.60;1.60;;;;;;;;;;1792348;79;26722;-55